Time;durP1;ratioP1;P1;durP2;ratioP2;P2;SDS_P1;SDS_P2;PMS_P1;PMS_P2;Temp;Humidity;BMP_temperature;BMP_pressure;BME280_temperature;BME280_humidity;BME280_pressure;Samples;Min_cycle;Max_cycle;Signal;HPM_P1;HPM_P2
2023/10/09 00:02:09;;;;;;;;;;;;;;;17.55;100.00;100393.38;4891806;29;19927;-75
2023/10/09 00:04:36;;;;;;;;;;;;;;;17.41;100.00;100394.84;4892089;29;19978;-77
2023/10/09 00:07:02;;;;;;;;;;;;;;;17.34;100.00;100396.50;4893768;29;19927;-76
2023/10/09 00:09:31;;;;;;;;;;;;;;;17.36;100.00;100399.84;4894360;29;20436;-77
2023/10/09 00:11:57;;;;;;;;;;;;;;;17.34;100.00;100390.34;4895532;29;19924;-77
2023/10/09 00:14:26;;;;;;;;;;;;;;;17.23;100.00;100402.16;4893959;29;20018;-77
2023/10/09 00:17:38;;;;;;;;;;;;;;;17.26;100.00;100388.50;4893557;29;19923;-76
2023/10/09 00:19:37;;;;;;;;;;;;;;;17.29;100.00;100396.19;4881162;29;19927;-76
2023/10/09 00:22:10;;;;;;;;;;;;;;;17.30;100.00;100395.19;4895221;29;19947;-77
2023/10/09 00:24:35;;;;;;;;;;;;;;;17.34;100.00;100388.50;4896082;29;19924;-77
2023/10/09 00:27:23;;;;;;;;;;;;;;;17.38;100.00;100392.50;4871767;29;19931;-75
2023/10/09 00:29:47;;;;;;;;;;;;;;;17.35;100.00;100387.50;4890484;29;20404;-77
2023/10/09 00:32:15;;;;;;;;;;;;;;;17.28;100.00;100394.50;4872286;29;20575;-77
2023/10/09 00:34:41;;;;;;;;;;;;;;;17.31;100.00;100391.53;4893381;29;19962;-77
2023/10/09 00:37:16;;;;;;;;;;;;;;;17.31;100.00;100396.84;4894975;29;19974;-76
2023/10/09 00:39:44;;;;;;;;;;;;;;;17.26;100.00;100388.50;4893997;29;20020;-77
2023/10/09 00:42:12;;;;;;;;;;;;;;;17.28;100.00;100381.16;4897358;29;20022;-77
2023/10/09 00:44:39;;;;;;;;;;;;;;;17.20;100.00;100383.81;4896904;29;19923;-77
2023/10/09 00:47:20;;;;;;;;;;;;;;;17.24;100.00;100385.16;4874303;29;20019;-77
2023/10/09 00:50:09;;;;;;;;;;;;;;;17.21;100.00;100388.16;4895716;29;20395;-77
2023/10/09 00:52:50;;;;;;;;;;;;;;;17.18;100.00;100388.50;4895386;29;19958;-77
2023/10/09 00:55:21;;;;;;;;;;;;;;;17.23;100.00;100377.31;4880319;29;19923;-76
2023/10/09 00:57:59;;;;;;;;;;;;;;;17.26;100.00;100377.81;4896016;29;20723;-76
2023/10/09 01:05:52;;;;;;;;;;;;;;;17.07;100.00;100383.50;4894625;29;20401;-77
2023/10/09 01:08:31;;;;;;;;;;;;;;;16.98;100.00;100374.63;4880319;29;19924;-77
2023/10/09 01:11:09;;;;;;;;;;;;;;;17.03;100.00;100368.78;4898337;29;19951;-76
2023/10/09 01:16:21;;;;;;;;;;;;;;;17.09;100.00;100371.63;4894393;29;19953;-76
2023/10/09 01:18:51;;;;;;;;;;;;;;;17.10;100.00;100364.47;4892914;29;19966;-77
2023/10/09 01:21:17;;;;;;;;;;;;;;;17.07;100.00;100367.50;4896188;29;20289;-76
2023/10/09 01:24:02;;;;;;;;;;;;;;;17.02;100.00;100364.50;4890943;29;19970;-77
2023/10/09 01:26:34;;;;;;;;;;;;;;;17.05;100.00;100366.81;4896735;29;19924;-77
2023/10/09 01:29:02;;;;;;;;;;;;;;;17.05;100.00;100362.31;4897136;29;19923;-77
2023/10/09 01:31:27;;;;;;;;;;;;;;;17.05;100.00;100362.31;4860843;29;19936;-77
2023/10/09 01:33:59;;;;;;;;;;;;;;;17.03;100.00;100366.13;4895261;29;19931;-77
2023/10/09 01:36:34;;;;;;;;;;;;;;;17.04;100.00;100367.81;4897180;29;19939;-78
2023/10/09 01:39:23;;;;;;;;;;;;;;;16.95;100.00;100364.31;4893774;29;19923;-76
2023/10/09 01:41:49;;;;;;;;;;;;;;;16.81;100.00;100361.44;4876156;29;20022;-74
2023/10/09 01:44:16;;;;;;;;;;;;;;;16.66;100.00;100358.56;4895545;29;19924;-76
2023/10/09 01:46:42;;;;;;;;;;;;;;;16.50;100.00;100364.63;4897220;29;19923;-76
2023/10/09 01:49:17;;;;;;;;;;;;;;;16.47;100.00;100364.97;4896630;29;19987;-77
2023/10/09 01:51:43;;;;;;;;;;;;;;;16.48;100.00;100366.66;4896650;29;19947;-78
2023/10/09 01:54:09;;;;;;;;;;;;;;;16.45;100.00;100361.63;4895782;29;20392;-77
2023/10/09 01:56:38;;;;;;;;;;;;;;;16.42;100.00;100356.63;4892331;29;19923;-76
2023/10/09 01:59:09;;;;;;;;;;;;;;;16.43;100.00;100362.78;4879332;29;20430;-76
2023/10/09 02:01:40;;;;;;;;;;;;;;;16.44;100.00;100359.94;4876292;29;19923;-76
2023/10/09 02:04:13;;;;;;;;;;;;;;;16.42;100.00;100355.78;4895547;29;20391;-76
2023/10/09 02:06:38;;;;;;;;;;;;;;;16.43;100.00;100366.28;4879473;29;20014;-77
2023/10/09 02:09:06;;;;;;;;;;;;;;;16.39;100.00;100362.25;4895747;29;20006;-75
2023/10/09 02:11:43;;;;;;;;;;;;;;;16.43;100.00;100363.63;4896383;29;20414;-78
2023/10/09 02:14:21;;;;;;;;;;;;;;;16.46;100.00;100368.63;4872406;29;20380;-76
2023/10/09 02:17:02;;;;;;;;;;;;;;;16.36;100.00;100360.78;4896417;29;19919;-76
2023/10/09 02:19:34;;;;;;;;;;;;;;;16.26;100.00;100362.69;4878974;29;20617;-77
2023/10/09 02:22:02;;;;;;;;;;;;;;;16.16;100.00;100366.50;4896033;29;19919;-76
2023/10/09 02:25:13;;;;;;;;;;;;;;;16.11;100.00;100363.47;4891851;29;19931;-79
2023/10/09 02:27:19;;;;;;;;;;;;;;;16.11;100.00;100368.78;4888447;29;20015;-78
2023/10/09 02:29:48;;;;;;;;;;;;;;;16.13;100.00;100366.81;4896037;29;19923;-77
2023/10/09 02:32:25;;;;;;;;;;;;;;;16.09;100.00;100365.44;4879444;29;20222;-77
2023/10/09 02:34:53;;;;;;;;;;;;;;;16.02;100.00;100367.09;4890486;29;20418;-77
2023/10/09 02:37:23;;;;;;;;;;;;;;;15.94;100.00;100360.72;4893161;29;19927;-76
2023/10/09 02:39:52;;;;;;;;;;;;;;;15.89;100.00;100365.69;4878513;29;20010;-77
2023/10/09 02:42:23;;;;;;;;;;;;;;;15.94;100.00;100362.56;4896189;29;20017;-77
2023/10/09 02:44:51;;;;;;;;;;;;;;;16.04;100.00;100367.75;4878256;29;19947;-76
2023/10/09 02:47:38;;;;;;;;;;;;;;;15.97;100.00;100363.06;4895371;29;19931;-77
2023/10/09 02:50:19;;;;;;;;;;;;;;;16.01;100.00;100362.75;4886942;29;20722;-76
2023/10/09 02:52:46;;;;;;;;;;;;;;;15.93;100.00;100367.03;4888726;29;19928;-77
2023/10/09 02:55:24;;;;;;;;;;;;;;;15.98;100.00;100362.06;4907962;29;19923;-76
2023/10/09 02:57:56;;;;;;;;;;;;;;;15.97;100.00;100364.88;4897205;29;19931;-76
2023/10/09 03:00:29;;;;;;;;;;;;;;;16.01;100.00;100362.75;4895810;29;19959;-76
2023/10/09 03:02:55;;;;;;;;;;;;;;;16.01;100.00;100362.75;4895050;29;20018;-76
2023/10/09 03:05:20;;;;;;;;;;;;;;;15.89;100.00;100362.19;4895132;29;20030;-75
2023/10/09 03:07:46;;;;;;;;;;;;;;;15.90;100.00;100367.34;4894577;29;20337;-77
2023/10/09 03:10:11;;;;;;;;;;;;;;;15.82;100.00;100363.81;4894555;29;20053;-76
2023/10/09 03:12:39;;;;;;;;;;;;;;;15.66;100.00;100363.72;4891709;29;19924;-74
2023/10/09 03:15:08;;;;;;;;;;;;;;;15.49;100.00;100373.34;4895575;29;20790;-74
2023/10/09 03:17:36;;;;;;;;;;;;;;;15.35;100.00;100371.25;4893968;29;19971;-75
2023/10/09 03:20:12;;;;;;;;;;;;;;;15.30;100.00;100373.53;4895088;29;19924;-76
2023/10/09 03:22:37;;;;;;;;;;;;;;;15.35;100.00;100365.91;4879049;29;20288;-77
2023/10/09 03:25:03;;;;;;;;;;;;;;;15.33;100.00;100368.72;4895320;29;19924;-76
2023/10/09 03:27:28;;;;;;;;;;;;;;;15.37;100.00;100363.97;4877908;29;19935;-77
2023/10/09 03:29:53;;;;;;;;;;;;;;;15.44;100.00;100367.66;4895044;29;20067;-76
2023/10/09 03:32:19;;;;;;;;;;;;;;;15.52;100.00;100370.41;4894930;29;19920;-77
2023/10/09 03:34:44;;;;;;;;;;;;;;;15.50;100.00;100364.38;4889846;29;20262;-77
2023/10/09 03:37:21;;;;;;;;;;;;;;;15.51;100.00;100360.72;4894580;29;19919;-77
2023/10/09 03:39:48;;;;;;;;;;;;;;;15.49;100.00;100368.84;4878346;29;19946;-76
2023/10/09 03:42:19;;;;;;;;;;;;;;;15.54;100.00;100366.63;4894422;29;20462;-76
2023/10/09 03:44:53;;;;;;;;;;;;;;;15.49;100.00;100360.88;4894934;29;19930;-79
2023/10/09 03:47:22;;;;;;;;;;;;;;;15.56;100.00;100358.47;4894450;29;19930;-76
2023/10/09 03:49:53;;;;;;;;;;;;;;;15.55;100.00;100362.94;4894920;29;20352;-76
2023/10/09 03:52:19;;;;;;;;;;;;;;;15.55;100.00;100367.47;4892181;29;19923;-76
2023/10/09 03:54:46;;;;;;;;;;;;;;;15.60;100.00;100364.31;4894836;29;19930;-77
2023/10/09 03:57:15;;;;;;;;;;;;;;;15.64;100.00;100366.50;4894462;29;19971;-77
2023/10/09 03:59:42;;;;;;;;;;;;;;;15.64;100.00;100366.50;4894976;29;19924;-78
2023/10/09 04:02:08;;;;;;;;;;;;;;;15.69;100.00;100369.53;4894496;29;19924;-76
2023/10/09 04:04:33;;;;;;;;;;;;;;;15.68;100.00;100372.34;4893657;29;21267;-77
2023/10/09 04:06:59;;;;;;;;;;;;;;;15.65;100.00;100373.50;4894767;29;20325;-76
2023/10/09 04:14:35;;;;;;;;;;;;;;;15.64;100.00;100366.50;4890596;29;19924;-77
2023/10/09 04:17:32;;;;;;;;;;;;;;;15.66;100.00;100369.88;4879699;29;20819;-76
2023/10/09 04:20:16;;;;;;;;;;;;;;;15.58;100.00;100377.78;4896812;29;19979;-76
2023/10/09 04:22:39;;;;;;;;;;;;;;;15.37;100.00;100370.13;4896068;29;20293;-76
2023/10/09 04:25:07;;;;;;;;;;;;;;;15.28;100.00;100370.19;4898520;29;19931;-77
2023/10/09 04:27:36;;;;;;;;;;;;;;;15.14;100.00;100361.75;4898032;29;19924;-76
2023/10/09 04:30:02;;;;;;;;;;;;;;;15.10;100.00;100365.69;4897883;29;19958;-75
2023/10/09 04:32:27;;;;;;;;;;;;;;;14.79;100.00;100367.03;4897158;29;19963;-75
2023/10/09 04:34:57;;;;;;;;;;;;;;;14.74;100.00;100369.31;4894314;29;19986;-76
2023/10/09 04:37:39;;;;;;;;;;;;;;;14.79;100.00;100363.53;4898063;29;20015;-76
2023/10/09 04:40:40;;;;;;;;;;;;;;;14.85;100.00;100370.91;4895726;29;20440;-77
2023/10/09 04:42:58;;;;;;;;;;;;;;;14.85;100.00;100385.03;4893131;29;19977;-76
2023/10/09 04:48:08;;;;;;;;;;;;;;;14.93;100.00;100377.16;4897520;29;19923;-76
2023/10/09 04:55:55;;;;;;;;;;;;;;;14.89;100.00;100378.47;4895925;29;20376;-77
2023/10/09 04:58:24;;;;;;;;;;;;;;;14.91;100.00;100379.13;4896185;29;19950;-76
2023/10/09 05:01:04;;;;;;;;;;;;;;;14.93;100.00;100377.16;4880858;29;19930;-78
2023/10/09 05:03:44;;;;;;;;;;;;;;;14.89;100.00;100370.50;4895607;29;20368;-77
2023/10/09 05:06:55;;;;;;;;;;;;;;;14.90;100.00;100380.13;4896737;29;19959;-75
2023/10/09 05:09:07;;;;;;;;;;;;;;;14.93;100.00;100387.78;4885887;29;19924;-77
2023/10/09 05:14:17;;;;;;;;;;;;;;;14.96;100.00;100374.19;4894414;29;19934;-77
2023/10/09 05:17:15;;;;;;;;;;;;;;;15.02;100.00;100370.94;4897051;29;19932;-77
2023/10/09 05:19:54;;;;;;;;;;;;;;;15.00;100.00;100383.56;4894205;29;19979;-76
2023/10/09 05:22:37;;;;;;;;;;;;;;;14.80;100.00;100384.66;4895035;29;19974;-75
2023/10/09 05:25:14;;;;;;;;;;;;;;;14.84;100.00;100394.03;4896471;29;20455;-77
2023/10/09 05:27:50;;;;;;;;;;;;;;;14.76;100.00;100391.25;4889310;29;19931;-77
2023/10/09 05:30:24;;;;;;;;;;;;;;;14.77;100.00;100384.97;4893761;29;20329;-78
2023/10/09 05:32:54;;;;;;;;;;;;;;;14.79;100.00;100390.94;4892337;29;20384;-78
2023/10/09 05:35:29;;;;;;;;;;;;;;;14.80;100.00;100387.31;4894762;29;20039;-77
2023/10/09 05:38:01;;;;;;;;;;;;;;;14.69;100.00;100379.56;4896411;29;19924;-76
2023/10/09 05:40:31;;;;;;;;;;;;;;;14.59;100.00;100384.09;4896625;29;20022;-76
2023/10/09 05:42:59;;;;;;;;;;;;;;;14.57;100.00;100380.75;4896577;29;19963;-77
2023/10/09 05:50:58;;;;;;;;;;;;;;;14.62;100.00;100379.31;4894178;29;19923;-77
2023/10/09 05:54:11;;;;;;;;;;;;;;;14.67;100.00;100381.50;4896214;29;19966;-75
2023/10/09 06:04:33;;;;;;;;;;;;;;;14.76;100.00;100377.97;4897861;29;19983;-79
2023/10/09 06:07:12;;;;;;;;;;;;;;;14.81;100.00;100378.38;4894286;29;20018;-76
2023/10/09 06:15:19;;;;;;;;;;;;;;;14.63;100.00;100385.47;4898032;29;19942;-75
2023/10/09 06:17:50;;;;;;;;;;;;;;;14.62;100.00;100386.44;4892173;29;20421;-76
2023/10/09 06:23:04;;;;;;;;;;;;;;;14.64;100.00;100392.44;4890989;29;19923;-76
2023/10/09 06:25:39;;;;;;;;;;;;;;;14.53;100.00;100387.34;4895194;29;19932;-77
2023/10/09 06:28:04;;;;;;;;;;;;;;;14.54;100.00;100387.22;4895760;29;20309;-76
2023/10/09 06:30:34;;;;;;;;;;;;;;;14.57;100.00;100391.38;4893508;29;20071;-76
2023/10/09 06:33:19;;;;;;;;;;;;;;;14.70;100.00;100392.69;4903085;23;20022;-82
2023/10/09 06:35:53;;;;;;;;;;;;;;;14.77;100.00;100392.09;4850249;29;19988;-83
2023/10/09 06:38:22;;;;;;;;;;;;;;;14.78;100.00;100394.63;4871645;29;19932;-83
2023/10/09 06:43:17;;;;;;;;;;;;;;;14.85;100.00;100398.31;4854580;29;19924;-82
2023/10/09 06:45:45;;;;;;;;;;;;;;;14.90;100.00;100404.06;4869383;29;20262;-83
2023/10/09 06:51:15;;;;;;;;;;;;;;;14.94;100.00;100400.09;4868602;29;19931;-82
2023/10/09 06:58:54;;;;;;;;;;;;;;;15.22;100.00;100392.91;4871268;29;20027;-83
2023/10/09 07:01:25;;;;;;;;;;;;;;;15.33;100.00;100399.78;4871290;29;20017;-81
2023/10/09 07:04:10;;;;;;;;;;;;;;;15.48;100.00;100392.97;4869370;29;19931;-82
2023/10/09 07:14:07;;;;;;;;;;;;;;;15.83;100.00;100403.56;4877099;29;19936;-82
2023/10/09 07:16:38;;;;;;;;;;;;;;;15.89;100.00;100399.44;4870868;29;19924;-83
2023/10/09 07:19:25;;;;;;;;;;;;;;;16.00;100.00;100399.19;4870560;29;19928;-82
2023/10/09 07:21:54;;;;;;;;;;;;;;;16.17;100.00;100405.44;4857351;29;19923;-82
2023/10/09 07:24:24;;;;;;;;;;;;;;;16.31;100.00;100404.88;4872430;29;20295;-82
2023/10/09 07:26:53;;;;;;;;;;;;;;;16.47;100.00;100404.09;4871451;29;19931;-83
2023/10/09 07:29:22;;;;;;;;;;;;;;;16.39;100.00;100404.88;4870287;29;19975;-82
2023/10/09 07:31:56;;;;;;;;;;;;;;;16.37;100.00;100401.56;4873732;29;19920;-81
2023/10/09 07:34:32;;;;;;;;;;;;;;;16.40;100.00;100401.22;4867227;29;20406;-81
2023/10/09 07:37:03;;;;;;;;;;;;;;;16.46;100.00;100405.91;4865536;29;19924;-82
2023/10/09 07:39:34;;;;;;;;;;;;;;;16.48;100.00;100400.44;4873366;29;19928;-82
2023/10/09 07:42:15;;;;;;;;;;;;;;;16.59;100.00;100406.34;4876363;29;20293;-82
2023/10/09 07:44:46;;;;;;;;;;;;;;;16.76;100.00;100399.25;4872551;29;20005;-81
2023/10/09 07:47:18;;;;;;;;;;;;;;;16.86;100.00;100402.59;4872377;29;19924;-84
2023/10/09 07:49:48;;;;;;;;;;;;;;;16.94;100.00;100409.78;4869501;29;19924;-86
2023/10/09 07:52:14;;;;;;;;;;;;;;;17.00;100.00;100401.13;4872738;29;20014;-84
2023/10/09 07:54:49;;;;;;;;;;;;;;;17.04;100.00;100391.81;4873839;29;20346;-84
2023/10/09 07:57:17;;;;;;;;;;;;;;;17.11;100.00;100390.16;4868688;29;19931;-84
2023/10/09 08:02:41;;;;;;;;;;;;;;;17.31;100.00;100391.53;4841772;29;20003;-83
2023/10/09 08:05:18;;;;;;;;;;;;;;;17.40;100.00;100390.50;4873092;29;20022;-86
2023/10/09 08:07:54;;;;;;;;;;;;;;;17.50;100.00;100396.50;4873845;29;19931;-84
2023/10/09 08:13:20;;;;;;;;;;;;;;;17.68;100.00;100392.88;4870778;29;20332;-83
2023/10/09 08:15:51;;;;;;;;;;;;;;;17.78;100.00;100398.88;4872323;29;20690;-86
2023/10/09 08:18:27;;;;;;;;;;;;;;;17.88;100.00;100399.53;4871000;29;20018;-85
2023/10/09 08:23:28;;;;;;;;;;;;;;;18.04;100.00;100390.63;4534070;29;10000611;-89
2023/10/09 08:26:28;;;;;;;;;;;;;;;18.11;100.00;100395.13;4875584;29;19950;-86
2023/10/09 08:28:54;;;;;;;;;;;;;;;18.20;100.00;100394.09;4868304;29;19966;-87
2023/10/09 08:31:34;;;;;;;;;;;;;;;18.27;100.00;100404.94;4876894;29;19931;-88
2023/10/09 08:34:03;;;;;;;;;;;;;;;18.34;100.00;100405.91;4876730;29;19952;-88
2023/10/09 08:36:36;;;;;;;;;;;;;;;18.44;100.00;100397.72;4874106;29;20015;-87
2023/10/09 08:42:01;;;;;;;;;;;;;;;18.59;100.00;100388.00;4858250;29;19935;-87
2023/10/09 08:44:29;;;;;;;;;;;;;;;18.66;100.00;100386.28;4859157;29;20286;-88
2023/10/09 08:46:55;;;;;;;;;;;;;;;18.74;100.00;100386.22;4871573;29;19939;-87
2023/10/09 08:49:23;;;;;;;;;;;;;;;18.83;100.00;100381.69;4874303;29;19927;-89
2023/10/09 08:51:48;;;;;;;;;;;;;;;18.91;100.00;100387.81;4872826;29;19928;-88
2023/10/09 08:54:14;;;;;;;;;;;;;;;18.98;100.00;100378.06;4870615;29;19932;-89
2023/10/09 08:56:49;;;;;;;;;;;;;;;19.04;100.00;100393.41;4868595;29;19924;-89
2023/10/09 08:59:16;;;;;;;;;;;;;;;19.12;100.00;100390.69;4876182;29;19931;-89
2023/10/09 09:01:41;;;;;;;;;;;;;;;19.19;100.00;100386.31;4874875;29;19927;-90
2023/10/09 09:04:08;;;;;;;;;;;;;;;19.28;100.00;100386.22;4871178;29;19928;-86
2023/10/09 09:06:38;;;;;;;;;;;;;;;19.36;100.00;100384.34;4870175;29;19992;-90
2023/10/09 09:09:13;;;;;;;;;;;;;;;19.44;100.00;100378.09;4870928;29;19928;-87
2023/10/09 09:11:48;;;;;;;;;;;;;;;19.49;100.00;100373.06;4870134;29;19927;-89
2023/10/09 09:14:18;;;;;;;;;;;;;;;19.55;100.00;100369.66;4538124;29;10000587;-89
2023/10/09 09:16:48;;;;;;;;;;;;;;;19.62;100.00;100370.56;4873719;29;19955;-88
2023/10/09 09:19:17;;;;;;;;;;;;;;;19.69;100.00;100376.03;4875749;29;19924;-89
2023/10/09 09:21:48;;;;;;;;;;;;;;;19.77;100.00;100374.13;4860274;29;19924;-91
2023/10/09 09:26:58;;;;;;;;;;;;;;;19.90;100.00;100363.63;4871020;29;20449;-88
2023/10/09 09:29:24;;;;;;;;;;;;;;;19.97;100.00;100361.84;4874229;29;20373;-91
2023/10/09 09:31:54;;;;;;;;;;;;;;;20.05;100.00;100363.63;4875607;29;19934;-90
2023/10/09 09:34:25;;;;;;;;;;;;;;;20.11;100.00;100359.38;4856460;29;20346;-87
2023/10/09 09:36:53;;;;;;;;;;;;;;;20.17;100.00;100358.63;4872572;29;19928;-88
2023/10/09 09:39:26;;;;;;;;;;;;;;;20.24;100.00;100356.88;4878268;29;20015;-90
2023/10/09 09:41:54;;;;;;;;;;;;;;;20.33;100.00;100353.09;4877444;29;19923;-90
2023/10/09 09:44:26;;;;;;;;;;;;;;;20.49;100.00;100352.94;4873296;29;19995;-91
2023/10/09 09:46:53;;;;;;;;;;;;;;;20.64;100.00;100345.66;4878398;29;19968;-91
2023/10/09 09:49:21;;;;;;;;;;;;;;;20.70;100.00;100344.91;4877023;29;19931;-89
2023/10/09 09:51:47;;;;;;;;;;;;;;;20.78;100.00;100336.75;4875289;29;19946;-92
2023/10/09 09:54:15;;;;;;;;;;;;;;;20.84;100.00;100335.19;4872307;29;20429;-91
2023/10/09 09:56:50;;;;;;;;;;;;;;;20.90;100.00;100331.72;4873501;29;19960;-90
2023/10/09 09:59:21;;;;;;;;;;;;;;;20.96;100.00;100327.44;4872947;29;20350;-87
2023/10/09 10:01:56;;;;;;;;;;;;;;;21.02;100.00;100332.06;4875324;29;19924;-88
2023/10/09 10:04:24;;;;;;;;;;;;;;;21.08;100.00;100326.75;4844200;29;19934;-89
2023/10/09 10:06:50;;;;;;;;;;;;;;;21.13;100.00;100326.16;4875565;29;20354;-92
2023/10/09 10:09:38;;;;;;;;;;;;;;;21.26;99.84;100329.00;4869249;29;19924;-86
2023/10/09 10:12:09;;;;;;;;;;;;;;;21.35;98.73;100317.09;4555457;29;10000056;-89
2023/10/09 10:14:59;;;;;;;;;;;;;;;21.43;99.65;100325.03;4875166;29;20011;-89
2023/10/09 10:17:24;;;;;;;;;;;;;;;21.50;98.91;100311.66;4865586;29;19963;-88
2023/10/09 10:22:50;;;;;;;;;;;;;;;21.67;98.49;100314.88;4870898;29;19987;-89
2023/10/09 10:25:32;;;;;;;;;;;;;;;21.79;95.97;100307.94;4872678;29;19935;-89
2023/10/09 10:28:24;;;;;;;;;;;;;;;21.88;92.15;100301.38;4534294;29;10000195;-85
2023/10/09 10:30:51;;;;;;;;;;;;;;;21.97;90.61;100302.91;4872547;29;19924;-87
2023/10/09 10:33:17;;;;;;;;;;;;;;;22.02;90.83;100303.13;4869875;29;19924;-85
2023/10/09 10:35:45;;;;;;;;;;;;;;;22.13;90.00;100294.50;4877024;29;20007;-85
2023/10/09 10:38:23;;;;;;;;;;;;;;;22.17;92.33;100294.94;4839786;29;19924;-90
2023/10/09 10:40:57;;;;;;;;;;;;;;;22.21;91.38;100291.63;4873745;29;19924;-90
2023/10/09 10:46:04;;;;;;;;;;;;;;;22.38;92.65;100271.44;4871219;29;20007;-89
2023/10/09 10:48:37;;;;;;;;;;;;;;;22.42;94.05;100278.09;4874656;29;19959;-89
2023/10/09 10:51:04;;;;;;;;;;;;;;;22.45;94.94;100274.13;4871018;29;19924;-90
2023/10/09 10:53:34;;;;;;;;;;;;;;;22.57;94.82;100264.44;4855237;29;19924;-90
2023/10/09 10:58:47;;;;;;;;;;;;;;;22.72;95.65;100251.72;4875937;29;19924;-89
2023/10/09 11:01:13;;;;;;;;;;;;;;;22.85;95.85;100253.59;4869360;29;19935;-88
2023/10/09 11:03:55;;;;;;;;;;;;;;;22.98;95.24;100250.88;4885254;29;19946;-88
2023/10/09 11:06:38;;;;;;;;;;;;;;;23.12;94.27;100241.78;4887609;29;20005;-90
2023/10/09 11:09:35;;;;;;;;;;;;;;;23.17;95.48;100244.69;4886169;29;19927;-88
2023/10/09 11:12:12;;;;;;;;;;;;;;;23.37;94.27;100233.06;4887466;29;19923;-89
2023/10/09 11:15:05;;;;;;;;;;;;;;;23.46;94.66;100226.41;4876330;29;19924;-88
2023/10/09 11:17:31;;;;;;;;;;;;;;;23.61;92.37;100233.28;4874456;29;19927;-88
2023/10/09 11:19:57;;;;;;;;;;;;;;;23.76;90.57;100222.25;4875954;29;20266;-90
2023/10/09 11:22:29;;;;;;;;;;;;;;;23.91;89.91;100219.31;4875223;29;20444;-89
2023/10/09 11:25:13;;;;;;;;;;;;;;;24.16;85.06;100220.22;4867904;29;20385;-90
2023/10/09 11:27:40;;;;;;;;;;;;;;;24.44;85.11;100209.13;4871004;29;19924;-85
2023/10/09 11:30:08;;;;;;;;;;;;;;;24.53;87.87;100209.66;4874224;29;19924;-84
2023/10/09 11:32:37;;;;;;;;;;;;;;;24.64;87.80;100204.41;4861527;29;19924;-83
2023/10/09 11:35:27;;;;;;;;;;;;;;;24.74;95.02;100199.34;4875329;29;19935;-86
2023/10/09 11:37:59;;;;;;;;;;;;;;;24.84;87.24;100194.28;4874181;29;19932;-85
2023/10/09 11:41:05;;;;;;;;;;;;;;;24.90;86.59;100191.78;4872754;29;20309;-86
2023/10/09 11:43:50;;;;;;;;;;;;;;;25.09;78.69;100180.00;4874774;29;20380;-81
2023/10/09 11:46:11;;;;;;;;;;;;;;;25.19;84.27;100177.59;4873196;29;19931;-80
2023/10/09 11:49:13;;;;;;;;;;;;;;;25.27;81.20;100185.44;4857011;29;20023;-81
2023/10/09 11:51:22;;;;;;;;;;;;;;;25.43;85.03;100174.03;4875231;29;19934;-80
2023/10/09 11:53:54;;;;;;;;;;;;;;;25.51;83.63;100170.19;4886779;29;19923;-79
2023/10/09 11:56:26;;;;;;;;;;;;;;;25.61;77.43;100157.84;4889906;29;19931;-80
2023/10/09 11:58:53;;;;;;;;;;;;;;;25.73;79.32;100154.38;4890032;29;19924;-79
2023/10/09 12:01:22;;;;;;;;;;;;;;;25.88;77.14;100152.09;4872121;29;19924;-82
2023/10/09 12:03:52;;;;;;;;;;;;;;;26.08;75.10;100144.56;4892844;29;19927;-82
2023/10/09 12:06:22;;;;;;;;;;;;;;;26.21;73.57;100141.69;4895041;29;19912;-84
2023/10/09 12:08:47;;;;;;;;;;;;;;;26.40;72.68;100132.44;4887966;29;19927;-84
2023/10/09 12:11:14;;;;;;;;;;;;;;;26.58;75.04;100130.72;4879804;29;19924;-85
2023/10/09 12:13:42;;;;;;;;;;;;;;;26.73;72.61;100123.81;4871474;29;19934;-86
2023/10/09 12:16:09;;;;;;;;;;;;;;;26.89;72.71;100116.91;4870804;29;20396;-83
2023/10/09 12:18:41;;;;;;;;;;;;;;;27.04;73.23;100109.09;4858432;29;20029;-80
2023/10/09 12:21:07;;;;;;;;;;;;;;;27.19;70.70;100111.34;4855515;29;19999;-80
2023/10/09 12:23:36;;;;;;;;;;;;;;;27.31;70.42;100109.44;4847204;29;19947;-81
2023/10/09 12:26:02;;;;;;;;;;;;;;;27.42;69.71;100111.31;4853120;29;20018;-80
2023/10/09 12:28:28;;;;;;;;;;;;;;;27.56;68.47;100095.63;4856386;29;20030;-80
2023/10/09 12:30:53;;;;;;;;;;;;;;;27.71;67.83;100098.63;4859389;29;19932;-80
2023/10/09 12:33:19;;;;;;;;;;;;;;;27.82;66.87;100100.47;4859573;29;19935;-81
2023/10/09 12:35:48;;;;;;;;;;;;;;;27.90;67.30;100091.97;4860829;29;19932;-81
2023/10/09 12:38:18;;;;;;;;;;;;;;;28.07;68.68;100092.00;4860816;29;19928;-79
2023/10/09 12:40:50;;;;;;;;;;;;;;;28.17;69.39;100085.94;4866005;29;20389;-80
2023/10/09 12:43:21;;;;;;;;;;;;;;;28.26;64.69;100089.91;4866664;29;20686;-81
2023/10/09 12:45:47;;;;;;;;;;;;;;;28.33;63.42;100088.72;4864398;29;20031;-81
2023/10/09 12:48:14;;;;;;;;;;;;;;;28.47;63.93;100083.75;4868268;29;19971;-80
2023/10/09 12:50:41;;;;;;;;;;;;;;;28.69;62.12;100079.22;4863003;29;19939;-80
2023/10/09 12:53:07;;;;;;;;;;;;;;;28.90;62.40;100081.22;4866017;29;19980;-81
2023/10/09 12:55:37;;;;;;;;;;;;;;;28.97;64.81;100080.22;4866307;29;21158;-83
2023/10/09 12:58:06;;;;;;;;;;;;;;;29.04;66.59;100070.78;4864492;29;20006;-79
2023/10/09 13:00:37;;;;;;;;;;;;;;;29.18;67.60;100071.25;4859491;29;19932;-80
2023/10/09 13:03:13;;;;;;;;;;;;;;;29.27;68.65;100058.88;4851250;29;19932;-79
2023/10/09 13:05:51;;;;;;;;;;;;;;;29.33;69.37;100063.34;4853442;29;19924;-79
2023/10/09 13:08:19;;;;;;;;;;;;;;;29.39;70.10;100048.72;4863905;29;19932;-79
2023/10/09 13:10:45;;;;;;;;;;;;;;;29.47;71.62;100050.16;4861160;29;19924;-80
2023/10/09 13:13:11;;;;;;;;;;;;;;;29.61;72.21;100043.25;4878454;29;19939;-83
2023/10/09 13:15:42;;;;;;;;;;;;;;;29.69;71.00;100032.72;4872944;29;19932;-81
2023/10/09 13:18:08;;;;;;;;;;;;;;;29.75;72.25;100032.81;4875553;29;19924;-81
2023/10/09 13:20:35;;;;;;;;;;;;;;;29.86;71.67;100024.50;4880033;29;20003;-82
2023/10/09 13:23:01;;;;;;;;;;;;;;;29.97;70.98;100025.44;4871805;29;20010;-81
2023/10/09 13:25:32;;;;;;;;;;;;;;;30.03;70.35;100022.50;4867793;29;19924;-81
2023/10/09 13:27:57;;;;;;;;;;;;;;;30.14;70.88;100026.13;4875745;29;20265;-80
2023/10/09 13:30:23;;;;;;;;;;;;;;;30.23;69.52;100008.22;4883300;29;19975;-78
2023/10/09 13:32:51;;;;;;;;;;;;;;;30.33;69.07;100010.22;4856607;29;19948;-81
2023/10/09 13:35:18;;;;;;;;;;;;;;;30.41;68.69;100005.09;4877303;29;19924;-78
2023/10/09 13:37:47;;;;;;;;;;;;;;;30.48;68.15;99999.47;4872699;29;19933;-79
2023/10/09 13:40:26;;;;;;;;;;;;;;;30.49;68.17;100001.09;4870614;29;19959;-77
2023/10/09 13:43:01;;;;;;;;;;;;;;;30.47;68.84;99995.88;4848212;29;20160;-85
2023/10/09 13:45:27;;;;;;;;;;;;;;;30.36;69.04;99988.72;4873709;29;19974;-83
2023/10/09 13:47:56;;;;;;;;;;;;;;;30.24;70.04;99988.09;4871356;29;20079;-83
2023/10/09 13:50:28;;;;;;;;;;;;;;;30.12;71.00;99990.19;4869595;29;19931;-86
2023/10/09 13:52:54;;;;;;;;;;;;;;;29.96;71.44;99991.13;4871496;29;19999;-82
2023/10/09 13:55:20;;;;;;;;;;;;;;;29.79;71.44;99984.97;4872460;29;20440;-82
2023/10/09 13:57:46;;;;;;;;;;;;;;;29.59;72.11;99980.13;4869178;29;19966;-82
2023/10/09 14:00:20;;;;;;;;;;;;;;;29.40;72.67;99978.84;4873642;29;20289;-82
2023/10/09 14:02:46;;;;;;;;;;;;;;;29.17;75.20;99977.19;4871808;29;19980;-81
2023/10/09 14:05:12;;;;;;;;;;;;;;;28.98;76.95;99971.28;4857217;29;19923;-82
2023/10/09 14:07:37;;;;;;;;;;;;;;;28.84;78.41;99968.13;4873381;29;19930;-83
2023/10/09 14:10:17;;;;;;;;;;;;;;;28.72;79.33;99967.38;4870261;29;19924;-85
2023/10/09 14:12:43;;;;;;;;;;;;;;;28.54;80.48;99956.81;4871457;29;19923;-85
2023/10/09 14:15:16;;;;;;;;;;;;;;;28.37;81.16;99950.59;4870001;29;19924;-84
2023/10/09 14:17:42;;;;;;;;;;;;;;;28.24;82.41;99956.38;4861421;29;20003;-90
2023/10/09 14:20:30;;;;;;;;;;;;;;;28.11;83.49;99952.88;4859170;29;20382;-82